<?xml version="1.0" encoding="UTF-8" standalone="no" ?>
<gpx xmlns="http://www.topografix.com/GPX/1/1" xmlns:xsi="http://www.w3.org/2001/XMLSchema-instance" xsi:schemaLocation="http://www.topografix.com/GPX/1/1 http://www.topografix.com/GPX/1/1/gpx.xsd" version="1.1" creator="VisuGPX - https://www.visugpx.com">
  <metadata>
    <name>Faugères-La pierre plantée</name>
    <desc><![CDATA[Une balade de Faugères à la Pierre Plantée qui est un menhir christianisé, constitué d'un bloc de grès vertical de 2,70 mètres auréolé d'une légende à découvrir.]]></desc>
  </metadata>
  <wpt lat="44.4751" lon="4.13497">
    <ele>454.03</ele>
    <name><![CDATA[0000064]]></name>
    <type><![CDATA[Point de départ]]></type>
  </wpt>
  <wpt lat="44.4751" lon="4.13497">
    <ele>454.03</ele>
    <name><![CDATA[0000065]]></name>
    <desc><![CDATA[<p><br /><h3>Nom: Segment: 1</h3><br />Heure de départ: 04/27/2018 14:02<br/>Heure d'arrivée: 04/27/2018 14:02<br/>Distance: 0km (00:00)<br/>Temps déplacement: 00:00<br/>Vitesse moyenne: 0 km/h<br/>Vitesse moyenne mouv.: 0 km/h<br/>Vitesse Max.: 0 km/h<br/>Altitude minimale: 454 m<br/>Altitude maximale: 454 m<br/>Gain d'altitude: 0 m<br/>Perte d'altitude: 0 m<br/>Temps de montée: 00:00<br/>Temps de descente: 00:00<br/></p>]]></desc>
    <type><![CDATA[Point d'arrivée]]></type>
  </wpt>
  <wpt lat="44.47538" lon="4.13557">
    <ele>453.71</ele>
    <name><![CDATA[0000066]]></name>
    <desc><![CDATA[<p><br /><h3>Nom: Segment: 1</h3><br />Heure de départ: 04/27/2018 14:02<br/>Heure d'arrivée: 04/27/2018 15:50<br/>Distance: 5km (01:48)<br/>Temps déplacement: 01:10<br/>Vitesse moyenne: 2,78 km/h<br/>Vitesse moyenne mouv.: 4,22 km/h<br/>Vitesse Max.: 13,08 km/h<br/>Altitude minimale: 408 m<br/>Altitude maximale: 471 m<br/>Vitesse de montée: 208,2 m/h<br/>Vitesse de descente: -208,2 m/h<br/>Gain d'altitude: 161 m<br/>Perte d'altitude: -161 m<br/>Temps de montée: 00:46<br/>Temps de descente: 00:46<br/></p>]]></desc>
    <type><![CDATA[Point d'arrivée]]></type>
  </wpt>
  <trk>
    <name><![CDATA[2018-04-27 14:02]]></name>
    <desc><![CDATA[<p>Heure de départ: 04/27/2018 14:02<br/>Heure d'arrivée: 04/27/2018 15:50<br/>Distance: 5 km (01:48)<br/>Temps déplacement: 01:10<br/>Vitesse moyenne: 2,78 km/h<br/>Vitesse moyenne mouv.: 4,28 km/h<br/>Vitesse Max.: 13,08 km/h<br/>Altitude minimale: 408 m<br/>Altitude maximale: 471 m<br/>Vitesse de montée: 195,9 m/h<br/>Vitesse de descente: -196,9 m/h<br/>Gain d'altitude: 151 m<br/>Perte d'altitude: -153 m<br/>Temps de montée: 00:46<br/>Temps de descente: 00:46<br/></p><hr align="center" width="480" style="height: 2px; width: 517px"/>]]></desc>
    <trkseg>
      <trkpt lat="44.4751" lon="4.13497">
        <ele>454.03</ele>
        <time>2018-04-27T12:02:15Z</time>
      </trkpt>
      <trkpt lat="44.47503" lon="4.13482">
        <ele>454.16</ele>
        <time>2018-04-27T12:02:32Z</time>
      </trkpt>
      <trkpt lat="44.4748" lon="4.13485">
        <ele>449.4</ele>
        <time>2018-04-27T12:02:35Z</time>
      </trkpt>
      <trkpt lat="44.47501" lon="4.13502">
        <ele>450.8</ele>
        <time>2018-04-27T12:02:39Z</time>
      </trkpt>
      <trkpt lat="44.47513" lon="4.13521">
        <ele>452.74</ele>
        <time>2018-04-27T12:02:52Z</time>
      </trkpt>
      <trkpt lat="44.47523" lon="4.13545">
        <ele>452.12</ele>
        <time>2018-04-27T12:03:18Z</time>
      </trkpt>
      <trkpt lat="44.47536" lon="4.13569">
        <ele>451.4</ele>
        <time>2018-04-27T12:03:40Z</time>
      </trkpt>
      <trkpt lat="44.47529" lon="4.13594">
        <ele>447.49</ele>
        <time>2018-04-27T12:04:10Z</time>
      </trkpt>
      <trkpt lat="44.47514" lon="4.13612">
        <ele>443.85</ele>
        <time>2018-04-27T12:04:50Z</time>
      </trkpt>
      <trkpt lat="44.47504" lon="4.13635">
        <ele>441.19</ele>
        <time>2018-04-27T12:05:26Z</time>
      </trkpt>
      <trkpt lat="44.47501" lon="4.13662">
        <ele>440.28</ele>
        <time>2018-04-27T12:05:42Z</time>
      </trkpt>
      <trkpt lat="44.47499" lon="4.13688">
        <ele>438.52</ele>
        <time>2018-04-27T12:06:02Z</time>
      </trkpt>
      <trkpt lat="44.47499" lon="4.13714">
        <ele>436.95</ele>
        <time>2018-04-27T12:06:49Z</time>
      </trkpt>
      <trkpt lat="44.47511" lon="4.13735">
        <ele>437.46</ele>
        <time>2018-04-27T12:07:07Z</time>
      </trkpt>
      <trkpt lat="44.47529" lon="4.1375">
        <ele>438.71</ele>
        <time>2018-04-27T12:07:19Z</time>
      </trkpt>
      <trkpt lat="44.47539" lon="4.13773">
        <ele>435.45</ele>
        <time>2018-04-27T12:07:51Z</time>
      </trkpt>
      <trkpt lat="44.47553" lon="4.13789">
        <ele>434.52</ele>
        <time>2018-04-27T12:08:03Z</time>
      </trkpt>
      <trkpt lat="44.47568" lon="4.13806">
        <ele>433.82</ele>
        <time>2018-04-27T12:08:13Z</time>
      </trkpt>
      <trkpt lat="44.47581" lon="4.13827">
        <ele>432.63</ele>
        <time>2018-04-27T12:08:37Z</time>
      </trkpt>
      <trkpt lat="44.47597" lon="4.13838">
        <ele>432.73</ele>
        <time>2018-04-27T12:08:47Z</time>
      </trkpt>
      <trkpt lat="44.47617" lon="4.13841">
        <ele>434.74</ele>
        <time>2018-04-27T12:09:03Z</time>
      </trkpt>
      <trkpt lat="44.47635" lon="4.13848">
        <ele>436.13</ele>
        <time>2018-04-27T12:09:19Z</time>
      </trkpt>
      <trkpt lat="44.47654" lon="4.13848">
        <ele>438.75</ele>
        <time>2018-04-27T12:09:35Z</time>
      </trkpt>
      <trkpt lat="44.47673" lon="4.13836">
        <ele>444.71</ele>
        <time>2018-04-27T12:09:47Z</time>
      </trkpt>
      <trkpt lat="44.47692" lon="4.13842">
        <ele>449.8</ele>
        <time>2018-04-27T12:10:19Z</time>
      </trkpt>
      <trkpt lat="44.47706" lon="4.13863">
        <ele>449.83</ele>
        <time>2018-04-27T12:10:37Z</time>
      </trkpt>
      <trkpt lat="44.47717" lon="4.13888">
        <ele>448.68</ele>
        <time>2018-04-27T12:10:59Z</time>
      </trkpt>
      <trkpt lat="44.47725" lon="4.13912">
        <ele>446.74</ele>
        <time>2018-04-27T12:11:15Z</time>
      </trkpt>
      <trkpt lat="44.47734" lon="4.13935">
        <ele>444.99</ele>
        <time>2018-04-27T12:11:45Z</time>
      </trkpt>
      <trkpt lat="44.47737" lon="4.13962">
        <ele>440.32</ele>
        <time>2018-04-27T12:12:09Z</time>
      </trkpt>
      <trkpt lat="44.47752" lon="4.13975">
        <ele>440.9</ele>
        <time>2018-04-27T12:12:23Z</time>
      </trkpt>
      <trkpt lat="44.47768" lon="4.13989">
        <ele>442.2</ele>
        <time>2018-04-27T12:12:43Z</time>
      </trkpt>
      <trkpt lat="44.4778" lon="4.14011">
        <ele>443.1</ele>
        <time>2018-04-27T12:15:07Z</time>
      </trkpt>
      <trkpt lat="44.47764" lon="4.14027">
        <ele>441.55</ele>
        <time>2018-04-27T12:15:31Z</time>
      </trkpt>
      <trkpt lat="44.47746" lon="4.14032">
        <ele>437.88</ele>
        <time>2018-04-27T12:15:49Z</time>
      </trkpt>
      <trkpt lat="44.47727" lon="4.14044">
        <ele>436.02</ele>
        <time>2018-04-27T12:16:15Z</time>
      </trkpt>
      <trkpt lat="44.47708" lon="4.14043">
        <ele>432.71</ele>
        <time>2018-04-27T12:16:27Z</time>
      </trkpt>
      <trkpt lat="44.4769" lon="4.1405">
        <ele>430.64</ele>
        <time>2018-04-27T12:16:47Z</time>
      </trkpt>
      <trkpt lat="44.47674" lon="4.14061">
        <ele>430.2</ele>
        <time>2018-04-27T12:17:05Z</time>
      </trkpt>
      <trkpt lat="44.47653" lon="4.14061">
        <ele>427.81</ele>
        <time>2018-04-27T12:17:25Z</time>
      </trkpt>
      <trkpt lat="44.47636" lon="4.1405">
        <ele>423.66</ele>
        <time>2018-04-27T12:17:37Z</time>
      </trkpt>
      <trkpt lat="44.47619" lon="4.14061">
        <ele>424.29</ele>
        <time>2018-04-27T12:17:55Z</time>
      </trkpt>
      <trkpt lat="44.47602" lon="4.1407">
        <ele>425.04</ele>
        <time>2018-04-27T12:18:19Z</time>
      </trkpt>
      <trkpt lat="44.47586" lon="4.14082">
        <ele>426.99</ele>
        <time>2018-04-27T12:18:49Z</time>
      </trkpt>
      <trkpt lat="44.47568" lon="4.1409">
        <ele>427.03</ele>
        <time>2018-04-27T12:19:07Z</time>
      </trkpt>
      <trkpt lat="44.47555" lon="4.1411">
        <ele>431.5</ele>
        <time>2018-04-27T12:19:37Z</time>
      </trkpt>
      <trkpt lat="44.47541" lon="4.14126">
        <ele>435.36</ele>
        <time>2018-04-27T12:19:53Z</time>
      </trkpt>
      <trkpt lat="44.47521" lon="4.14135">
        <ele>435.8</ele>
        <time>2018-04-27T12:20:23Z</time>
      </trkpt>
      <trkpt lat="44.47502" lon="4.14138">
        <ele>434.17</ele>
        <time>2018-04-27T12:20:37Z</time>
      </trkpt>
      <trkpt lat="44.47485" lon="4.1415">
        <ele>436.18</ele>
        <time>2018-04-27T12:21:01Z</time>
      </trkpt>
      <trkpt lat="44.47468" lon="4.14156">
        <ele>436.14</ele>
        <time>2018-04-27T12:21:55Z</time>
      </trkpt>
      <trkpt lat="44.47454" lon="4.14174">
        <ele>438.88</ele>
        <time>2018-04-27T12:22:03Z</time>
      </trkpt>
      <trkpt lat="44.47439" lon="4.14189">
        <ele>441.49</ele>
        <time>2018-04-27T12:22:21Z</time>
      </trkpt>
      <trkpt lat="44.4742" lon="4.14189">
        <ele>438.89</ele>
        <time>2018-04-27T12:23:17Z</time>
      </trkpt>
      <trkpt lat="44.47405" lon="4.14205">
        <ele>438.24</ele>
        <time>2018-04-27T12:23:57Z</time>
      </trkpt>
      <trkpt lat="44.47392" lon="4.14229">
        <ele>439.06</ele>
        <time>2018-04-27T12:24:11Z</time>
      </trkpt>
      <trkpt lat="44.47381" lon="4.14251">
        <ele>439.18</ele>
        <time>2018-04-27T12:24:37Z</time>
      </trkpt>
      <trkpt lat="44.47373" lon="4.14275">
        <ele>439.96</ele>
        <time>2018-04-27T12:24:55Z</time>
      </trkpt>
      <trkpt lat="44.47361" lon="4.14294">
        <ele>438.15</ele>
        <time>2018-04-27T12:25:11Z</time>
      </trkpt>
      <trkpt lat="44.47351" lon="4.1432">
        <ele>438.32</ele>
        <time>2018-04-27T12:25:41Z</time>
      </trkpt>
      <trkpt lat="44.47344" lon="4.14344">
        <ele>439.66</ele>
        <time>2018-04-27T12:25:59Z</time>
      </trkpt>
      <trkpt lat="44.47327" lon="4.1436">
        <ele>437.11</ele>
        <time>2018-04-27T12:26:41Z</time>
      </trkpt>
      <trkpt lat="44.47315" lon="4.14379">
        <ele>437.44</ele>
        <time>2018-04-27T12:27:15Z</time>
      </trkpt>
      <trkpt lat="44.47297" lon="4.14383">
        <ele>433.69</ele>
        <time>2018-04-27T12:27:31Z</time>
      </trkpt>
      <trkpt lat="44.4728" lon="4.14392">
        <ele>431.28</ele>
        <time>2018-04-27T12:27:47Z</time>
      </trkpt>
      <trkpt lat="44.4726" lon="4.14402">
        <ele>428.31</ele>
        <time>2018-04-27T12:28:15Z</time>
      </trkpt>
      <trkpt lat="44.47245" lon="4.14418">
        <ele>427.67</ele>
        <time>2018-04-27T12:28:31Z</time>
      </trkpt>
      <trkpt lat="44.47228" lon="4.14427">
        <ele>423.58</ele>
        <time>2018-04-27T12:29:41Z</time>
      </trkpt>
      <trkpt lat="44.47212" lon="4.1444">
        <ele>419.9</ele>
        <time>2018-04-27T12:30:03Z</time>
      </trkpt>
      <trkpt lat="44.47198" lon="4.14459">
        <ele>416.94</ele>
        <time>2018-04-27T12:30:27Z</time>
      </trkpt>
      <trkpt lat="44.47182" lon="4.14474">
        <ele>413.25</ele>
        <time>2018-04-27T12:30:49Z</time>
      </trkpt>
      <trkpt lat="44.47179" lon="4.145">
        <ele>413.4</ele>
        <time>2018-04-27T12:31:21Z</time>
      </trkpt>
      <trkpt lat="44.47172" lon="4.14526">
        <ele>408.44</ele>
        <time>2018-04-27T12:32:33Z</time>
      </trkpt>
      <trkpt lat="44.47183" lon="4.14548">
        <ele>409.55</ele>
        <time>2018-04-27T12:33:01Z</time>
      </trkpt>
      <trkpt lat="44.47193" lon="4.14569">
        <ele>410.01</ele>
        <time>2018-04-27T12:33:37Z</time>
      </trkpt>
      <trkpt lat="44.47209" lon="4.14584">
        <ele>412.86</ele>
        <time>2018-04-27T12:34:13Z</time>
      </trkpt>
      <trkpt lat="44.47224" lon="4.146">
        <ele>415.96</ele>
        <time>2018-04-27T12:34:39Z</time>
      </trkpt>
      <trkpt lat="44.47237" lon="4.14621">
        <ele>417.38</ele>
        <time>2018-04-27T12:34:55Z</time>
      </trkpt>
      <trkpt lat="44.47251" lon="4.1464">
        <ele>419.44</ele>
        <time>2018-04-27T12:35:25Z</time>
      </trkpt>
      <trkpt lat="44.4726" lon="4.14664">
        <ele>420.76</ele>
        <time>2018-04-27T12:36:05Z</time>
      </trkpt>
      <trkpt lat="44.47261" lon="4.14691">
        <ele>422.8</ele>
        <time>2018-04-27T12:36:31Z</time>
      </trkpt>
      <trkpt lat="44.4726" lon="4.14716">
        <ele>424.84</ele>
        <time>2018-04-27T12:36:57Z</time>
      </trkpt>
      <trkpt lat="44.47258" lon="4.14742">
        <ele>426.53</ele>
        <time>2018-04-27T12:37:31Z</time>
      </trkpt>
      <trkpt lat="44.47245" lon="4.14758">
        <ele>424.57</ele>
        <time>2018-04-27T12:37:53Z</time>
      </trkpt>
      <trkpt lat="44.47236" lon="4.14781">
        <ele>428.35</ele>
        <time>2018-04-27T12:38:33Z</time>
      </trkpt>
      <trkpt lat="44.47239" lon="4.14807">
        <ele>435.13</ele>
        <time>2018-04-27T12:39:05Z</time>
      </trkpt>
      <trkpt lat="44.47224" lon="4.14825">
        <ele>436.71</ele>
        <time>2018-04-27T12:39:23Z</time>
      </trkpt>
      <trkpt lat="44.47209" lon="4.14841">
        <ele>437.95</ele>
        <time>2018-04-27T12:40:37Z</time>
      </trkpt>
      <trkpt lat="44.472" lon="4.14864">
        <ele>441.35</ele>
        <time>2018-04-27T12:40:49Z</time>
      </trkpt>
      <trkpt lat="44.47185" lon="4.14884">
        <ele>444.22</ele>
        <time>2018-04-27T12:42:03Z</time>
      </trkpt>
      <trkpt lat="44.47165" lon="4.14887">
        <ele>442.5</ele>
        <time>2018-04-27T12:45:51Z</time>
      </trkpt>
      <trkpt lat="44.47154" lon="4.14909">
        <ele>446.28</ele>
        <time>2018-04-27T12:46:39Z</time>
      </trkpt>
      <trkpt lat="44.4714" lon="4.14927">
        <ele>448</ele>
        <time>2018-04-27T12:46:55Z</time>
      </trkpt>
      <trkpt lat="44.47143" lon="4.14952">
        <ele>452.13</ele>
        <time>2018-04-27T12:47:27Z</time>
      </trkpt>
      <trkpt lat="44.47156" lon="4.14971">
        <ele>457.2</ele>
        <time>2018-04-27T12:47:49Z</time>
      </trkpt>
      <trkpt lat="44.47138" lon="4.14974">
        <ele>455.11</ele>
        <time>2018-04-27T12:48:17Z</time>
      </trkpt>
      <trkpt lat="44.47127" lon="4.15">
        <ele>456.79</ele>
        <time>2018-04-27T12:48:39Z</time>
      </trkpt>
      <trkpt lat="44.4712" lon="4.15025">
        <ele>457.3</ele>
        <time>2018-04-27T12:48:59Z</time>
      </trkpt>
      <trkpt lat="44.47111" lon="4.15049">
        <ele>457.59</ele>
        <time>2018-04-27T12:49:17Z</time>
      </trkpt>
      <trkpt lat="44.471" lon="4.1507">
        <ele>456.92</ele>
        <time>2018-04-27T12:49:33Z</time>
      </trkpt>
      <trkpt lat="44.471" lon="4.15098">
        <ele>458.8</ele>
        <time>2018-04-27T12:50:01Z</time>
      </trkpt>
      <trkpt lat="44.47098" lon="4.15124">
        <ele>459.93</ele>
        <time>2018-04-27T12:50:21Z</time>
      </trkpt>
      <trkpt lat="44.4709" lon="4.1515">
        <ele>460.08</ele>
        <time>2018-04-27T12:50:39Z</time>
      </trkpt>
      <trkpt lat="44.47087" lon="4.15176">
        <ele>460.78</ele>
        <time>2018-04-27T12:50:59Z</time>
      </trkpt>
      <trkpt lat="44.4708" lon="4.15201">
        <ele>460.5</ele>
        <time>2018-04-27T12:51:15Z</time>
      </trkpt>
      <trkpt lat="44.47064" lon="4.15218">
        <ele>459.38</ele>
        <time>2018-04-27T12:51:39Z</time>
      </trkpt>
      <trkpt lat="44.47054" lon="4.15241">
        <ele>459.43</ele>
        <time>2018-04-27T12:51:53Z</time>
      </trkpt>
      <trkpt lat="44.47044" lon="4.15264">
        <ele>459.5</ele>
        <time>2018-04-27T12:52:11Z</time>
      </trkpt>
      <trkpt lat="44.47033" lon="4.15286">
        <ele>459.23</ele>
        <time>2018-04-27T12:52:27Z</time>
      </trkpt>
      <trkpt lat="44.47015" lon="4.15291">
        <ele>458.06</ele>
        <time>2018-04-27T12:53:29Z</time>
      </trkpt>
      <trkpt lat="44.47021" lon="4.15264">
        <ele>457.8</ele>
        <time>2018-04-27T12:57:20Z</time>
      </trkpt>
      <trkpt lat="44.47021" lon="4.1529">
        <ele>458.46</ele>
        <time>2018-04-27T12:57:52Z</time>
      </trkpt>
      <trkpt lat="44.47031" lon="4.15313">
        <ele>459.72</ele>
        <time>2018-04-27T13:05:18Z</time>
      </trkpt>
      <trkpt lat="44.47031" lon="4.1534">
        <ele>459.88</ele>
        <time>2018-04-27T13:05:52Z</time>
      </trkpt>
      <trkpt lat="44.4704" lon="4.15365">
        <ele>459.2</ele>
        <time>2018-04-27T13:06:37Z</time>
      </trkpt>
      <trkpt lat="44.4704" lon="4.1539">
        <ele>457.84</ele>
        <time>2018-04-27T13:06:51Z</time>
      </trkpt>
      <trkpt lat="44.47046" lon="4.1542">
        <ele>456.65</ele>
        <time>2018-04-27T13:07:05Z</time>
      </trkpt>
      <trkpt lat="44.47055" lon="4.15446">
        <ele>454.3</ele>
        <time>2018-04-27T13:07:19Z</time>
      </trkpt>
      <trkpt lat="44.47058" lon="4.15473">
        <ele>451.25</ele>
        <time>2018-04-27T13:07:33Z</time>
      </trkpt>
      <trkpt lat="44.4707" lon="4.15494">
        <ele>450.09</ele>
        <time>2018-04-27T13:07:51Z</time>
      </trkpt>
      <trkpt lat="44.47088" lon="4.15504">
        <ele>450.24</ele>
        <time>2018-04-27T13:08:13Z</time>
      </trkpt>
      <trkpt lat="44.47103" lon="4.15489">
        <ele>450.21</ele>
        <time>2018-04-27T13:08:33Z</time>
      </trkpt>
      <trkpt lat="44.47116" lon="4.15469">
        <ele>450.71</ele>
        <time>2018-04-27T13:09:19Z</time>
      </trkpt>
      <trkpt lat="44.47125" lon="4.15444">
        <ele>452.49</ele>
        <time>2018-04-27T13:09:37Z</time>
      </trkpt>
      <trkpt lat="44.47135" lon="4.15421">
        <ele>453.72</ele>
        <time>2018-04-27T13:09:55Z</time>
      </trkpt>
      <trkpt lat="44.4714" lon="4.15396">
        <ele>456.31</ele>
        <time>2018-04-27T13:10:25Z</time>
      </trkpt>
      <trkpt lat="44.47148" lon="4.15374">
        <ele>458.64</ele>
        <time>2018-04-27T13:10:43Z</time>
      </trkpt>
      <trkpt lat="44.47164" lon="4.15358">
        <ele>460.48</ele>
        <time>2018-04-27T13:11:03Z</time>
      </trkpt>
      <trkpt lat="44.47181" lon="4.15343">
        <ele>459.76</ele>
        <time>2018-04-27T13:11:25Z</time>
      </trkpt>
      <trkpt lat="44.4719" lon="4.15321">
        <ele>461.49</ele>
        <time>2018-04-27T13:11:55Z</time>
      </trkpt>
      <trkpt lat="44.47204" lon="4.15304">
        <ele>461.51</ele>
        <time>2018-04-27T13:12:11Z</time>
      </trkpt>
      <trkpt lat="44.47219" lon="4.15289">
        <ele>462.04</ele>
        <time>2018-04-27T13:12:27Z</time>
      </trkpt>
      <trkpt lat="44.47235" lon="4.15274">
        <ele>463.04</ele>
        <time>2018-04-27T13:12:47Z</time>
      </trkpt>
      <trkpt lat="44.47253" lon="4.15261">
        <ele>464</ele>
        <time>2018-04-27T13:13:11Z</time>
      </trkpt>
      <trkpt lat="44.47268" lon="4.15246">
        <ele>463.53</ele>
        <time>2018-04-27T13:13:25Z</time>
      </trkpt>
      <trkpt lat="44.47279" lon="4.15222">
        <ele>465.11</ele>
        <time>2018-04-27T13:13:45Z</time>
      </trkpt>
      <trkpt lat="44.47296" lon="4.15208">
        <ele>463.77</ele>
        <time>2018-04-27T13:14:05Z</time>
      </trkpt>
      <trkpt lat="44.47306" lon="4.15187">
        <ele>466.13</ele>
        <time>2018-04-27T13:14:33Z</time>
      </trkpt>
      <trkpt lat="44.4732" lon="4.1517">
        <ele>467.62</ele>
        <time>2018-04-27T13:14:57Z</time>
      </trkpt>
      <trkpt lat="44.47331" lon="4.15148">
        <ele>467.8</ele>
        <time>2018-04-27T13:15:15Z</time>
      </trkpt>
      <trkpt lat="44.47335" lon="4.1512">
        <ele>468.65</ele>
        <time>2018-04-27T13:15:39Z</time>
      </trkpt>
      <trkpt lat="44.47334" lon="4.15092">
        <ele>471.1</ele>
        <time>2018-04-27T13:15:53Z</time>
      </trkpt>
      <trkpt lat="44.47336" lon="4.15065">
        <ele>471.29</ele>
        <time>2018-04-27T13:16:13Z</time>
      </trkpt>
      <trkpt lat="44.47341" lon="4.15039">
        <ele>469.63</ele>
        <time>2018-04-27T13:16:31Z</time>
      </trkpt>
      <trkpt lat="44.47349" lon="4.15012">
        <ele>467.55</ele>
        <time>2018-04-27T13:17:13Z</time>
      </trkpt>
      <trkpt lat="44.47353" lon="4.14988">
        <ele>466.41</ele>
        <time>2018-04-27T13:17:27Z</time>
      </trkpt>
      <trkpt lat="44.47366" lon="4.14965">
        <ele>464.28</ele>
        <time>2018-04-27T13:17:43Z</time>
      </trkpt>
      <trkpt lat="44.4737" lon="4.14939">
        <ele>464.85</ele>
        <time>2018-04-27T13:18:03Z</time>
      </trkpt>
      <trkpt lat="44.47378" lon="4.14915">
        <ele>465.04</ele>
        <time>2018-04-27T13:18:23Z</time>
      </trkpt>
      <trkpt lat="44.47381" lon="4.1489">
        <ele>464.33</ele>
        <time>2018-04-27T13:18:47Z</time>
      </trkpt>
      <trkpt lat="44.47385" lon="4.14864">
        <ele>463.86</ele>
        <time>2018-04-27T13:19:09Z</time>
      </trkpt>
      <trkpt lat="44.47386" lon="4.14837">
        <ele>463.66</ele>
        <time>2018-04-27T13:19:21Z</time>
      </trkpt>
      <trkpt lat="44.47386" lon="4.14812">
        <ele>463</ele>
        <time>2018-04-27T13:19:41Z</time>
      </trkpt>
      <trkpt lat="44.47387" lon="4.14786">
        <ele>462.22</ele>
        <time>2018-04-27T13:19:59Z</time>
      </trkpt>
      <trkpt lat="44.47393" lon="4.1476">
        <ele>461.95</ele>
        <time>2018-04-27T13:20:17Z</time>
      </trkpt>
      <trkpt lat="44.47401" lon="4.14735">
        <ele>462.36</ele>
        <time>2018-04-27T13:20:37Z</time>
      </trkpt>
      <trkpt lat="44.47406" lon="4.1471">
        <ele>462.76</ele>
        <time>2018-04-27T13:20:59Z</time>
      </trkpt>
      <trkpt lat="44.4741" lon="4.14683">
        <ele>463.05</ele>
        <time>2018-04-27T13:21:19Z</time>
      </trkpt>
      <trkpt lat="44.47412" lon="4.14656">
        <ele>463.92</ele>
        <time>2018-04-27T13:21:39Z</time>
      </trkpt>
      <trkpt lat="44.47398" lon="4.14635">
        <ele>463.11</ele>
        <time>2018-04-27T13:22:05Z</time>
      </trkpt>
      <trkpt lat="44.47379" lon="4.14625">
        <ele>460.81</ele>
        <time>2018-04-27T13:22:23Z</time>
      </trkpt>
      <trkpt lat="44.47363" lon="4.14611">
        <ele>458.86</ele>
        <time>2018-04-27T13:22:47Z</time>
      </trkpt>
      <trkpt lat="44.47351" lon="4.14592">
        <ele>457.61</ele>
        <time>2018-04-27T13:23:09Z</time>
      </trkpt>
      <trkpt lat="44.47342" lon="4.1457">
        <ele>457.3</ele>
        <time>2018-04-27T13:23:25Z</time>
      </trkpt>
      <trkpt lat="44.47333" lon="4.14548">
        <ele>456.65</ele>
        <time>2018-04-27T13:23:47Z</time>
      </trkpt>
      <trkpt lat="44.47326" lon="4.14524">
        <ele>455.56</ele>
        <time>2018-04-27T13:24:05Z</time>
      </trkpt>
      <trkpt lat="44.4732" lon="4.14499">
        <ele>455.13</ele>
        <time>2018-04-27T13:24:31Z</time>
      </trkpt>
      <trkpt lat="44.47313" lon="4.14474">
        <ele>450.83</ele>
        <time>2018-04-27T13:24:51Z</time>
      </trkpt>
      <trkpt lat="44.47297" lon="4.1446">
        <ele>445.04</ele>
        <time>2018-04-27T13:25:13Z</time>
      </trkpt>
      <trkpt lat="44.47286" lon="4.14483">
        <ele>444.13</ele>
        <time>2018-04-27T13:25:37Z</time>
      </trkpt>
      <trkpt lat="44.47267" lon="4.14492">
        <ele>440.22</ele>
        <time>2018-04-27T13:26:03Z</time>
      </trkpt>
      <trkpt lat="44.47249" lon="4.14489">
        <ele>435.01</ele>
        <time>2018-04-27T13:26:29Z</time>
      </trkpt>
      <trkpt lat="44.47233" lon="4.145">
        <ele>430.61</ele>
        <time>2018-04-27T13:27:59Z</time>
      </trkpt>
      <trkpt lat="44.47222" lon="4.14475">
        <ele>425.54</ele>
        <time>2018-04-27T13:28:27Z</time>
      </trkpt>
      <trkpt lat="44.47232" lon="4.14454">
        <ele>426.76</ele>
        <time>2018-04-27T13:29:35Z</time>
      </trkpt>
      <trkpt lat="44.47234" lon="4.14427">
        <ele>425.2</ele>
        <time>2018-04-27T13:30:01Z</time>
      </trkpt>
      <trkpt lat="44.4725" lon="4.14415">
        <ele>428.41</ele>
        <time>2018-04-27T13:31:43Z</time>
      </trkpt>
      <trkpt lat="44.47271" lon="4.14403">
        <ele>430.87</ele>
        <time>2018-04-27T13:31:51Z</time>
      </trkpt>
      <trkpt lat="44.47313" lon="4.1438">
        <ele>435.59</ele>
        <time>2018-04-27T13:32:41Z</time>
      </trkpt>
      <trkpt lat="44.4733" lon="4.14361">
        <ele>437.97</ele>
        <time>2018-04-27T13:33:15Z</time>
      </trkpt>
      <trkpt lat="44.47348" lon="4.14346">
        <ele>441.22</ele>
        <time>2018-04-27T13:33:33Z</time>
      </trkpt>
      <trkpt lat="44.47358" lon="4.14319">
        <ele>440.95</ele>
        <time>2018-04-27T13:33:57Z</time>
      </trkpt>
      <trkpt lat="44.47362" lon="4.14294">
        <ele>438.69</ele>
        <time>2018-04-27T13:34:17Z</time>
      </trkpt>
      <trkpt lat="44.47378" lon="4.14279">
        <ele>442.4</ele>
        <time>2018-04-27T13:34:37Z</time>
      </trkpt>
      <trkpt lat="44.47384" lon="4.14254">
        <ele>440.96</ele>
        <time>2018-04-27T13:35:07Z</time>
      </trkpt>
      <trkpt lat="44.47394" lon="4.14229">
        <ele>439.83</ele>
        <time>2018-04-27T13:35:27Z</time>
      </trkpt>
      <trkpt lat="44.47408" lon="4.14212">
        <ele>441.02</ele>
        <time>2018-04-27T13:35:53Z</time>
      </trkpt>
      <trkpt lat="44.47422" lon="4.14194">
        <ele>440.14</ele>
        <time>2018-04-27T13:36:23Z</time>
      </trkpt>
      <trkpt lat="44.47452" lon="4.14167">
        <ele>438.09</ele>
        <time>2018-04-27T13:36:53Z</time>
      </trkpt>
      <trkpt lat="44.47467" lon="4.14154">
        <ele>435.45</ele>
        <time>2018-04-27T13:37:05Z</time>
      </trkpt>
      <trkpt lat="44.47486" lon="4.14141">
        <ele>433.65</ele>
        <time>2018-04-27T13:37:55Z</time>
      </trkpt>
      <trkpt lat="44.47504" lon="4.14132">
        <ele>432.42</ele>
        <time>2018-04-27T13:38:11Z</time>
      </trkpt>
      <trkpt lat="44.47526" lon="4.14127">
        <ele>433.79</ele>
        <time>2018-04-27T13:38:45Z</time>
      </trkpt>
      <trkpt lat="44.47541" lon="4.14112">
        <ele>431.17</ele>
        <time>2018-04-27T13:39:07Z</time>
      </trkpt>
      <trkpt lat="44.47558" lon="4.14098">
        <ele>428.54</ele>
        <time>2018-04-27T13:39:21Z</time>
      </trkpt>
      <trkpt lat="44.47575" lon="4.14085">
        <ele>426.28</ele>
        <time>2018-04-27T13:39:41Z</time>
      </trkpt>
      <trkpt lat="44.47591" lon="4.14074">
        <ele>425.04</ele>
        <time>2018-04-27T13:40:17Z</time>
      </trkpt>
      <trkpt lat="44.47611" lon="4.14067">
        <ele>424.95</ele>
        <time>2018-04-27T13:40:39Z</time>
      </trkpt>
      <trkpt lat="44.47629" lon="4.14067">
        <ele>426.73</ele>
        <time>2018-04-27T13:40:49Z</time>
      </trkpt>
      <trkpt lat="44.47647" lon="4.14062">
        <ele>427.38</ele>
        <time>2018-04-27T13:41:01Z</time>
      </trkpt>
      <trkpt lat="44.47666" lon="4.14058">
        <ele>428.2</ele>
        <time>2018-04-27T13:41:15Z</time>
      </trkpt>
      <trkpt lat="44.47684" lon="4.14056">
        <ele>430.66</ele>
        <time>2018-04-27T13:41:27Z</time>
      </trkpt>
      <trkpt lat="44.47702" lon="4.14056">
        <ele>433.49</ele>
        <time>2018-04-27T13:41:49Z</time>
      </trkpt>
      <trkpt lat="44.47722" lon="4.1405">
        <ele>435.77</ele>
        <time>2018-04-27T13:42:03Z</time>
      </trkpt>
      <trkpt lat="44.47738" lon="4.14037">
        <ele>436.68</ele>
        <time>2018-04-27T13:42:25Z</time>
      </trkpt>
      <trkpt lat="44.47758" lon="4.1403">
        <ele>439.89</ele>
        <time>2018-04-27T13:42:41Z</time>
      </trkpt>
      <trkpt lat="44.47775" lon="4.14023">
        <ele>443.51</ele>
        <time>2018-04-27T13:42:55Z</time>
      </trkpt>
      <trkpt lat="44.47783" lon="4.13999">
        <ele>443.53</ele>
        <time>2018-04-27T13:43:17Z</time>
      </trkpt>
      <trkpt lat="44.47766" lon="4.13983">
        <ele>443.09</ele>
        <time>2018-04-27T13:43:29Z</time>
      </trkpt>
      <trkpt lat="44.47747" lon="4.13973">
        <ele>440.73</ele>
        <time>2018-04-27T13:43:53Z</time>
      </trkpt>
      <trkpt lat="44.47739" lon="4.1395">
        <ele>443.11</ele>
        <time>2018-04-27T13:44:11Z</time>
      </trkpt>
      <trkpt lat="44.47726" lon="4.13928">
        <ele>444.09</ele>
        <time>2018-04-27T13:44:43Z</time>
      </trkpt>
      <trkpt lat="44.47719" lon="4.13902">
        <ele>446.41</ele>
        <time>2018-04-27T13:44:55Z</time>
      </trkpt>
      <trkpt lat="44.47712" lon="4.13876">
        <ele>449.36</ele>
        <time>2018-04-27T13:45:07Z</time>
      </trkpt>
      <trkpt lat="44.47701" lon="4.13853">
        <ele>450.52</ele>
        <time>2018-04-27T13:45:27Z</time>
      </trkpt>
      <trkpt lat="44.47692" lon="4.13831">
        <ele>452.19</ele>
        <time>2018-04-27T13:45:41Z</time>
      </trkpt>
      <trkpt lat="44.47671" lon="4.13833">
        <ele>446.14</ele>
        <time>2018-04-27T13:45:55Z</time>
      </trkpt>
      <trkpt lat="44.47654" lon="4.13841">
        <ele>440.92</ele>
        <time>2018-04-27T13:46:07Z</time>
      </trkpt>
      <trkpt lat="44.47634" lon="4.1384">
        <ele>438.05</ele>
        <time>2018-04-27T13:46:31Z</time>
      </trkpt>
      <trkpt lat="44.47616" lon="4.13846">
        <ele>433.77</ele>
        <time>2018-04-27T13:46:41Z</time>
      </trkpt>
      <trkpt lat="44.47597" lon="4.13842">
        <ele>431.82</ele>
        <time>2018-04-27T13:46:57Z</time>
      </trkpt>
      <trkpt lat="44.47583" lon="4.13826">
        <ele>433.02</ele>
        <time>2018-04-27T13:47:13Z</time>
      </trkpt>
      <trkpt lat="44.4757" lon="4.13807">
        <ele>433.8</ele>
        <time>2018-04-27T13:47:33Z</time>
      </trkpt>
      <trkpt lat="44.47553" lon="4.13794">
        <ele>433.31</ele>
        <time>2018-04-27T13:47:49Z</time>
      </trkpt>
      <trkpt lat="44.47541" lon="4.13769">
        <ele>436.11</ele>
        <time>2018-04-27T13:48:05Z</time>
      </trkpt>
      <trkpt lat="44.47526" lon="4.13755">
        <ele>437.37</ele>
        <time>2018-04-27T13:48:23Z</time>
      </trkpt>
      <trkpt lat="44.47516" lon="4.13732">
        <ele>438.38</ele>
        <time>2018-04-27T13:48:39Z</time>
      </trkpt>
      <trkpt lat="44.47504" lon="4.1371">
        <ele>438.03</ele>
        <time>2018-04-27T13:48:57Z</time>
      </trkpt>
      <trkpt lat="44.47498" lon="4.13686">
        <ele>438.25</ele>
        <time>2018-04-27T13:49:13Z</time>
      </trkpt>
      <trkpt lat="44.47508" lon="4.13664">
        <ele>441.57</ele>
        <time>2018-04-27T13:49:31Z</time>
      </trkpt>
      <trkpt lat="44.47514" lon="4.13639">
        <ele>443.11</ele>
        <time>2018-04-27T13:49:47Z</time>
      </trkpt>
      <trkpt lat="44.47518" lon="4.13613">
        <ele>444.61</ele>
        <time>2018-04-27T13:50:03Z</time>
      </trkpt>
      <trkpt lat="44.47533" lon="4.13599">
        <ele>447.98</ele>
        <time>2018-04-27T13:50:17Z</time>
      </trkpt>
      <trkpt lat="44.47546" lon="4.1358">
        <ele>451.97</ele>
        <time>2018-04-27T13:50:31Z</time>
      </trkpt>
      <trkpt lat="44.47538" lon="4.13557">
        <ele>453.71</ele>
        <time>2018-04-27T13:50:47Z</time>
      </trkpt>
    </trkseg>
  </trk>
</gpx>